createdAt,value
2019-01-18T00:00:58.773Z,14.70
2019-01-18T00:03:27.547Z,14.70
2019-01-18T00:05:56.572Z,15.32
2019-01-18T00:08:25.405Z,14.73
2019-01-18T00:10:54.708Z,14.95
2019-01-18T00:13:23.904Z,14.28
2019-01-18T00:15:52.851Z,15.05
2019-01-18T00:18:21.856Z,14.73
2019-01-18T00:20:50.677Z,15.15
2019-01-18T00:23:20.079Z,14.98
2019-01-18T00:25:48.988Z,15.20
2019-01-18T00:28:18.284Z,15.85
2019-01-18T00:30:47.174Z,14.90
2019-01-18T00:33:16.005Z,15.18
2019-01-18T00:35:44.858Z,14.53
2019-01-18T00:38:13.763Z,13.55
2019-01-18T00:40:43.572Z,14.23
2019-01-18T00:43:12.547Z,14.43
2019-01-18T00:45:41.375Z,13.60
2019-01-18T00:48:10.200Z,14.98
2019-01-18T00:50:38.951Z,15.30
2019-01-18T00:53:07.938Z,14.70
2019-01-18T00:55:36.703Z,14.90
2019-01-18T00:58:05.964Z,14.80
2019-01-18T01:00:34.976Z,15.03
2019-01-18T01:03:03.981Z,15.63
2019-01-18T01:05:32.924Z,15.48
2019-01-18T01:08:02.073Z,15.60
2019-01-18T01:10:30.931Z,14.90
2019-01-18T01:12:59.716Z,15.30
2019-01-18T01:15:28.640Z,14.70
2019-01-18T01:17:57.468Z,15.00
2019-01-18T01:20:26.215Z,15.98
2019-01-18T01:22:55.505Z,14.90
2019-01-18T01:25:24.475Z,15.30
2019-01-18T01:27:53.598Z,14.95
2019-01-18T01:30:24.750Z,13.98
2019-01-18T01:32:54.204Z,14.43
2019-01-18T01:35:23.483Z,14.87
2019-01-18T01:37:53.991Z,15.48
2019-01-18T01:40:27.550Z,13.40
2019-01-18T01:42:56.829Z,13.98
2019-01-18T01:45:26.159Z,13.70
2019-01-18T01:47:55.055Z,13.70
2019-01-18T01:50:25.684Z,13.90
2019-01-18T01:52:55.151Z,14.07
2019-01-18T01:55:24.046Z,13.32
2019-01-18T01:57:53.081Z,13.80
2019-01-18T02:00:23.906Z,13.22
2019-01-18T02:02:52.873Z,14.63
2019-01-18T02:05:21.843Z,14.83
2019-01-18T02:07:50.642Z,14.95
2019-01-18T02:10:20.115Z,14.80
2019-01-18T02:12:49.256Z,14.05
2019-01-18T02:15:20.289Z,14.38
2019-01-18T02:17:49.163Z,14.20
2019-01-18T02:20:19.797Z,14.85
2019-01-18T02:22:49.096Z,14.70
2019-01-18T02:25:18.031Z,14.70
2019-01-18T02:27:46.914Z,14.55
2019-01-18T02:30:20.859Z,14.70
2019-01-18T02:32:49.824Z,13.83
2019-01-18T02:35:19.116Z,13.15
2019-01-18T02:37:47.887Z,14.73
2019-01-18T02:40:16.782Z,13.65
2019-01-18T02:42:45.767Z,13.40
2019-01-18T02:45:16.553Z,14.00
2019-01-18T02:47:46.251Z,13.38
2019-01-18T02:50:15.513Z,13.85
2019-01-18T02:52:44.338Z,13.95
2019-01-18T02:55:13.623Z,14.13
2019-01-18T02:57:42.931Z,15.15
2019-01-18T03:00:17.115Z,15.48
2019-01-18T03:02:46.147Z,13.72
2019-01-18T03:05:15.872Z,13.70
2019-01-18T03:07:44.735Z,14.18
2019-01-18T03:10:17.151Z,14.18
2019-01-18T03:12:45.858Z,13.38
2019-01-18T03:15:14.917Z,13.50
2019-01-18T03:17:43.764Z,13.60
2019-01-18T03:20:13.919Z,14.07
2019-01-18T03:22:42.818Z,12.28
2019-01-18T03:25:17.262Z,12.93
2019-01-18T03:27:46.130Z,14.03
2019-01-18T03:30:18.596Z,13.18
2019-01-18T03:32:46.762Z,13.68
2019-01-18T03:35:17.157Z,13.13
2019-01-18T03:37:45.992Z,13.05
2019-01-18T03:40:15.985Z,12.55
2019-01-18T03:42:45.048Z,13.13
2019-01-18T03:45:15.436Z,13.38
2019-01-18T03:47:44.557Z,13.22
2019-01-18T03:50:19.027Z,12.70
2019-01-18T03:52:48.320Z,13.30
2019-01-18T03:55:17.371Z,12.63
2019-01-18T03:57:46.320Z,12.65
2019-01-18T04:00:25.113Z,12.23
2019-01-18T04:02:48.024Z,13.28
2019-01-18T04:05:17.455Z,13.10
2019-01-18T04:07:46.540Z,12.40
2019-01-18T04:10:17.332Z,12.15
2019-01-18T04:12:46.462Z,12.35
2019-01-18T04:15:34.584Z,12.37
2019-01-18T04:18:03.388Z,13.18
2019-01-18T04:20:32.189Z,13.70
2019-01-18T04:23:01.290Z,12.73
2019-01-18T04:25:31.888Z,13.22
2019-01-18T04:28:00.726Z,13.32
2019-01-18T04:30:33.497Z,13.10
2019-01-18T04:33:03.406Z,13.45
2019-01-18T04:35:35.519Z,13.53
2019-01-18T04:38:04.432Z,12.90
2019-01-18T04:40:33.973Z,12.40
2019-01-18T04:43:02.931Z,13.10
2019-01-18T04:45:31.792Z,12.30
2019-01-18T04:48:00.737Z,12.60
2019-01-18T04:50:29.739Z,12.98
2019-01-18T04:52:58.686Z,12.37
2019-01-18T04:55:27.713Z,11.80
2019-01-18T04:57:56.973Z,11.50
2019-01-18T05:00:30.499Z,10.35
2019-01-18T05:02:59.524Z,8.33
2019-01-18T05:05:28.417Z,8.63
2019-01-18T05:07:58.313Z,8.20
2019-01-18T05:10:28.490Z,9.83
2019-01-18T05:12:57.654Z,9.20
2019-01-18T05:15:28.955Z,10.28
2019-01-18T05:17:57.735Z,12.18
2019-01-18T05:20:26.736Z,12.73
2019-01-18T05:22:55.889Z,12.18
2019-01-18T05:25:24.720Z,10.90
2019-01-18T05:27:53.592Z,11.40
2019-01-18T05:30:24.638Z,11.10
2019-01-18T05:32:53.712Z,11.33
2019-01-18T05:35:22.926Z,11.10
2019-01-18T05:37:51.811Z,11.68
2019-01-18T05:40:20.981Z,11.65
2019-01-18T05:42:50.138Z,11.15
2019-01-18T05:45:20.524Z,12.60
2019-01-18T05:47:49.574Z,12.00
2019-01-18T05:50:20.923Z,11.35
2019-01-18T05:52:49.913Z,10.70
2019-01-18T05:55:18.812Z,11.18
2019-01-18T05:57:47.592Z,11.70
2019-01-18T06:00:43.979Z,11.90
2019-01-18T06:03:12.871Z,12.73
2019-01-18T06:05:43.339Z,12.98
2019-01-18T06:08:12.227Z,13.78
2019-01-18T06:10:41.092Z,13.75
2019-01-18T06:13:10.366Z,13.80
2019-01-18T06:15:40.506Z,13.60
2019-01-18T06:18:09.720Z,12.70
2019-01-18T06:20:38.490Z,13.13
2019-01-18T06:23:07.596Z,12.40
2019-01-18T06:25:36.437Z,12.90
2019-01-18T06:28:05.356Z,12.20
2019-01-18T06:30:34.581Z,11.95
2019-01-18T06:33:03.723Z,12.50
2019-01-18T06:35:32.616Z,12.37
2019-01-18T06:38:01.424Z,12.10
2019-01-18T06:40:30.628Z,12.15
2019-01-18T06:42:59.436Z,10.85
2019-01-18T06:45:29.021Z,11.38
2019-01-18T06:47:57.856Z,12.10
2019-01-18T06:50:26.925Z,10.63
2019-01-18T06:52:55.702Z,10.32
2019-01-18T06:55:24.566Z,10.32
2019-01-18T06:57:53.545Z,9.45
2019-01-18T07:00:27.611Z,10.48
2019-01-18T07:02:56.437Z,10.80
2019-01-18T07:05:25.679Z,10.50
2019-01-18T07:07:54.625Z,10.35
2019-01-18T07:10:23.578Z,10.78
2019-01-18T07:12:53.653Z,12.70
2019-01-18T07:15:22.725Z,12.20
2019-01-18T07:17:51.636Z,11.15
2019-01-18T07:20:21.100Z,10.58
2019-01-18T07:22:51.584Z,11.10
2019-01-18T07:25:31.311Z,10.13
2019-01-18T07:28:00.429Z,11.85
2019-01-18T07:30:34.505Z,10.20
2019-01-18T07:33:04.951Z,12.40
2019-01-18T07:35:34.058Z,12.88
2019-01-18T07:38:03.320Z,11.73
2019-01-18T07:40:32.260Z,12.40
2019-01-18T07:43:02.218Z,13.10
2019-01-18T07:45:31.226Z,14.03
2019-01-18T07:48:00.210Z,13.70
2019-01-18T07:50:29.140Z,13.70
2019-01-18T07:52:58.284Z,14.00
2019-01-18T07:55:27.147Z,17.55
2019-01-18T07:57:55.984Z,15.65
2019-01-18T08:00:26.912Z,15.40
2019-01-18T08:02:56.200Z,15.40
2019-01-18T08:05:27.408Z,15.85
2019-01-18T08:07:56.633Z,15.53
2019-01-18T08:10:25.581Z,17.35
2019-01-18T08:12:54.540Z,15.03
2019-01-18T08:15:25.182Z,15.80
2019-01-18T08:17:54.235Z,17.02
2019-01-18T08:20:24.785Z,16.05
2019-01-18T08:22:54.460Z,17.00
2019-01-18T08:25:23.404Z,16.10
2019-01-18T08:27:52.192Z,15.60
2019-01-18T08:30:23.053Z,18.25
2019-01-18T08:32:51.909Z,15.90
2019-01-18T08:35:21.904Z,16.45
2019-01-18T08:37:50.764Z,17.02
2019-01-18T08:40:22.204Z,16.45
2019-01-18T08:42:51.085Z,16.93
2019-01-18T08:45:25.164Z,16.20
2019-01-18T08:47:53.975Z,15.80
2019-01-18T08:50:23.199Z,15.98
2019-01-18T08:52:51.925Z,15.95
2019-01-18T08:55:20.909Z,15.95
2019-01-18T08:57:49.689Z,16.85
2019-01-18T09:00:20.517Z,16.50
2019-01-18T09:02:49.604Z,16.90
2019-01-18T09:05:20.729Z,15.58
2019-01-18T09:07:49.684Z,16.05
2019-01-18T09:10:19.363Z,16.60
2019-01-18T09:12:48.249Z,16.70
2019-01-18T09:15:17.473Z,17.45
2019-01-18T09:17:46.324Z,19.82
2019-01-18T09:20:20.842Z,16.40
2019-01-18T09:22:49.830Z,16.40
2019-01-18T09:25:19.239Z,16.90
2019-01-18T09:27:49.761Z,17.60
2019-01-18T09:30:20.600Z,17.75
2019-01-18T09:32:50.181Z,16.65
2019-01-18T09:35:20.210Z,19.00
2019-01-18T09:37:49.083Z,17.73
2019-01-18T09:40:20.600Z,30.23
2019-01-18T09:42:49.747Z,18.42
2019-01-18T09:45:18.693Z,20.48
2019-01-18T09:47:47.540Z,18.27
2019-01-18T09:50:18.928Z,18.45
2019-01-18T09:52:48.144Z,18.35
2019-01-18T09:55:16.914Z,17.82
2019-01-18T09:57:45.740Z,17.52
2019-01-18T10:00:23.359Z,18.30
2019-01-18T10:02:52.163Z,19.10
2019-01-18T10:05:21.992Z,19.07
2019-01-18T10:07:51.468Z,18.90
2019-01-18T10:10:20.516Z,18.05
2019-01-18T10:12:49.791Z,18.87
2019-01-18T10:15:21.085Z,18.67
2019-01-18T10:17:49.872Z,17.90
2019-01-18T10:20:18.997Z,18.80
2019-01-18T10:22:48.252Z,18.52
2019-01-18T10:25:17.344Z,19.45
2019-01-18T10:27:46.275Z,20.60
2019-01-18T10:30:20.079Z,18.50
2019-01-18T10:32:49.223Z,18.48
2019-01-18T10:35:18.957Z,19.00
2019-01-18T10:37:47.830Z,18.60
2019-01-18T10:40:22.418Z,19.75
2019-01-18T10:42:51.500Z,17.23
2019-01-18T10:45:21.128Z,17.50
2019-01-18T10:47:50.396Z,18.30
2019-01-18T10:50:24.609Z,18.82
2019-01-18T10:52:53.509Z,18.92
2019-01-18T10:55:22.453Z,18.48
2019-01-18T10:57:51.335Z,18.10
2019-01-18T11:00:22.839Z,18.92
2019-01-18T11:02:52.862Z,17.65
2019-01-18T11:05:23.017Z,17.27
2019-01-18T11:07:52.454Z,17.65
2019-01-18T11:10:21.572Z,16.57
2019-01-18T11:12:50.633Z,18.92
2019-01-18T11:15:22.355Z,18.25
2019-01-18T11:17:51.419Z,19.40
2019-01-18T11:20:26.390Z,18.35
2019-01-18T11:22:56.529Z,18.15
2019-01-18T11:25:31.549Z,18.50
2019-01-18T11:27:55.841Z,44.63
2019-01-18T11:30:24.909Z,20.48
2019-01-18T11:32:53.718Z,17.70
2019-01-18T11:35:22.485Z,18.35
2019-01-18T11:37:51.448Z,19.37
2019-01-18T11:40:21.303Z,19.10
2019-01-18T11:42:50.789Z,18.77
2019-01-18T11:45:19.772Z,18.73
2019-01-18T11:47:48.759Z,18.87
2019-01-18T11:50:22.446Z,19.10
2019-01-18T11:52:51.184Z,18.00
2019-01-18T11:55:20.107Z,18.30
2019-01-18T11:57:49.014Z,21.02
2019-01-18T12:00:23.102Z,19.40
2019-01-18T12:02:52.076Z,18.67
2019-01-18T12:05:21.107Z,18.85
2019-01-18T12:07:51.241Z,19.77
2019-01-18T12:10:22.712Z,19.70
2019-01-18T12:12:51.654Z,18.90
2019-01-18T12:15:21.015Z,20.70
2019-01-18T12:17:49.915Z,20.30
2019-01-18T12:20:22.122Z,19.07
2019-01-18T12:22:52.053Z,19.35
2019-01-18T12:25:21.315Z,18.65
2019-01-18T12:27:50.176Z,18.92
2019-01-18T12:30:25.158Z,19.37
2019-01-18T12:32:54.101Z,20.08
2019-01-18T12:35:23.239Z,19.60
2019-01-18T12:37:53.527Z,18.80
2019-01-18T12:40:22.511Z,19.52
2019-01-18T12:42:51.352Z,18.90
2019-01-18T12:45:21.287Z,20.77
2019-01-18T12:47:50.137Z,19.67
2019-01-18T12:50:38.924Z,18.80
2019-01-18T12:53:08.192Z,20.12
2019-01-18T12:55:37.705Z,19.30
2019-01-18T12:58:07.503Z,19.70
2019-01-18T13:00:36.772Z,19.20
2019-01-18T13:03:06.638Z,44.03
2019-01-18T13:05:38.919Z,22.75
2019-01-18T13:08:08.005Z,19.77
2019-01-18T13:10:37.088Z,18.57
2019-01-18T13:13:06.218Z,20.48
2019-01-18T13:15:42.415Z,18.90
2019-01-18T13:18:11.240Z,19.10
2019-01-18T13:20:40.039Z,19.10
2019-01-18T13:23:08.908Z,18.95
2019-01-18T13:25:37.928Z,18.40
2019-01-18T13:28:06.699Z,21.35
2019-01-18T13:30:35.780Z,19.52
2019-01-18T13:33:05.244Z,20.10
2019-01-18T13:35:34.474Z,21.40
2019-01-18T13:38:03.346Z,21.70
2019-01-18T13:40:32.281Z,21.20
2019-01-18T13:43:01.087Z,21.40
2019-01-18T13:45:30.071Z,21.37
2019-01-18T13:47:59.177Z,20.83
2019-01-18T13:50:28.215Z,19.70
2019-01-18T13:52:57.254Z,20.80
2019-01-18T13:55:26.956Z,19.93
2019-01-18T13:57:55.884Z,20.00
2019-01-18T14:00:24.820Z,20.10
2019-01-18T14:02:53.906Z,21.30
2019-01-18T14:05:23.333Z,19.80
2019-01-18T14:07:53.533Z,21.00
2019-01-18T14:10:27.540Z,19.90
2019-01-18T14:12:56.406Z,20.75
2019-01-18T14:15:25.794Z,20.12
2019-01-18T14:17:54.724Z,20.90
2019-01-18T14:20:23.796Z,19.40
2019-01-18T14:22:53.096Z,20.92
2019-01-18T14:25:22.049Z,19.55
2019-01-18T14:27:51.178Z,20.25
2019-01-18T14:30:22.465Z,20.02
2019-01-18T14:32:55.351Z,20.55
2019-01-18T14:35:22.234Z,18.40
2019-01-18T14:37:51.882Z,19.65
2019-01-18T14:40:20.884Z,19.67
2019-01-18T14:42:49.801Z,19.55
2019-01-18T14:45:33.972Z,20.23
2019-01-18T14:48:02.754Z,20.55
2019-01-18T14:50:33.084Z,19.25
2019-01-18T14:53:02.990Z,20.25
2019-01-18T14:55:33.471Z,20.05
2019-01-18T14:58:02.924Z,19.45
2019-01-18T15:00:35.027Z,19.02
2019-01-18T15:03:04.625Z,19.57
2019-01-18T15:05:33.908Z,19.27
2019-01-18T15:08:03.142Z,18.70
2019-01-18T15:10:32.469Z,20.82
2019-01-18T15:13:04.389Z,20.45
2019-01-18T15:15:35.074Z,19.77
2019-01-18T15:18:04.128Z,19.30
2019-01-18T15:20:33.697Z,21.25
2019-01-18T15:23:03.004Z,19.35
2019-01-18T15:25:32.336Z,20.00
2019-01-18T15:28:01.211Z,19.73
2019-01-18T15:30:31.117Z,20.45
2019-01-18T15:33:00.757Z,20.17
2019-01-18T15:35:36.255Z,19.62
2019-01-18T15:38:06.842Z,18.65
2019-01-18T15:40:38.876Z,19.20
2019-01-18T15:43:08.021Z,19.75
2019-01-18T15:45:37.559Z,20.62
2019-01-18T15:48:06.994Z,18.17
2019-01-18T15:50:37.686Z,19.20
2019-01-18T15:53:06.964Z,20.02
2019-01-18T15:55:37.075Z,19.12
2019-01-18T15:58:07.659Z,19.00
2019-01-18T16:00:39.082Z,19.12
2019-01-18T16:03:08.325Z,19.00
2019-01-18T16:05:37.252Z,19.92
2019-01-18T16:08:08.173Z,19.25
2019-01-18T16:10:38.826Z,19.90
2019-01-18T16:13:09.888Z,21.52
2019-01-18T16:16:16.048Z,20.40
2019-01-18T16:18:44.933Z,16.82
2019-01-18T16:21:13.756Z,17.70
2019-01-18T16:23:42.641Z,18.42
2019-01-18T16:26:11.505Z,17.30
2019-01-18T16:28:40.928Z,18.75
2019-01-18T16:31:10.518Z,20.85
2019-01-18T16:33:39.657Z,20.37
2019-01-18T16:36:08.597Z,21.27
2019-01-18T16:38:37.419Z,19.75
2019-01-18T16:41:06.274Z,20.25
2019-01-18T16:43:38.564Z,21.00
2019-01-18T16:46:07.672Z,21.90
2019-01-18T16:48:37.145Z,22.32
2019-01-18T16:51:06.079Z,20.68
2019-01-18T16:53:34.976Z,20.50
2019-01-18T16:56:04.136Z,20.62
2019-01-18T16:58:33.093Z,21.05
2019-01-18T17:01:04.039Z,20.08
2019-01-18T17:03:33.173Z,20.10
2019-01-18T17:06:02.070Z,20.00
2019-01-18T17:08:31.348Z,21.17
2019-01-18T17:11:00.443Z,20.65
2019-01-18T17:13:32.817Z,21.00
2019-01-18T17:16:01.848Z,20.50
2019-01-18T17:18:31.222Z,23.95
2019-01-18T17:21:00.271Z,20.23
2019-01-18T17:23:29.339Z,20.02
2019-01-18T17:25:58.218Z,19.65
2019-01-18T17:28:27.804Z,19.25
2019-01-18T17:30:56.748Z,19.27
2019-01-18T17:33:25.833Z,19.45
2019-01-18T17:36:01.277Z,20.77
2019-01-18T17:39:10.446Z,19.87
2019-01-18T17:42:05.717Z,18.82
2019-01-18T17:45:14.020Z,19.20
2019-01-18T17:48:32.505Z,18.37
2019-01-18T17:51:52.292Z,19.10
2019-01-18T17:54:41.776Z,18.30
2019-01-18T17:57:30.584Z,19.00
2019-01-18T18:00:42.295Z,18.40
2019-01-18T18:03:36.452Z,18.55
2019-01-18T18:06:44.415Z,18.55
2019-01-18T18:10:02.806Z,17.40
2019-01-18T18:12:57.644Z,18.50
2019-01-18T18:16:04.903Z,19.82
2019-01-18T18:18:56.169Z,19.23
2019-01-18T18:22:02.364Z,19.87
2019-01-18T18:24:51.321Z,18.02
2019-01-18T18:28:13.946Z,18.30
2019-01-18T18:31:03.483Z,19.90
2019-01-18T18:34:04.670Z,18.82
2019-01-18T18:36:49.331Z,19.02
2019-01-18T18:39:59.663Z,18.65
2019-01-18T18:42:45.023Z,17.73
2019-01-18T18:46:02.084Z,18.90
2019-01-18T18:49:16.450Z,19.00
2019-01-18T18:52:00.687Z,17.77
2019-01-18T18:54:58.415Z,18.15
2019-01-18T18:58:15.984Z,18.73
2019-01-18T19:01:30.118Z,16.12
2019-01-18T19:04:19.449Z,18.37
2019-01-18T19:07:45.666Z,17.27
2019-01-18T19:10:45.304Z,17.57
2019-01-18T19:13:58.255Z,18.20
2019-01-18T19:16:47.833Z,17.27
2019-01-18T19:20:16.595Z,17.42
2019-01-18T19:23:18.139Z,17.00
2019-01-18T19:26:22.085Z,17.90
2019-01-18T19:29:48.652Z,17.85
2019-01-18T19:33:17.185Z,17.62
2019-01-18T19:36:36.716Z,17.55
2019-01-18T19:39:45.348Z,18.52
2019-01-18T19:43:14.747Z,17.80
2019-01-18T19:45:54.057Z,17.80
2019-01-18T19:49:05.556Z,19.45
2019-01-18T19:52:01.107Z,18.07
2019-01-18T19:54:59.904Z,18.80
2019-01-18T19:58:25.012Z,17.75
2019-01-18T20:01:35.122Z,17.57
2019-01-18T20:04:23.502Z,17.92
2019-01-18T20:07:15.027Z,18.82
2019-01-18T20:10:20.831Z,17.90
2019-01-18T20:13:27.831Z,18.10
2019-01-18T20:16:50.714Z,18.02
2019-01-18T20:19:48.435Z,18.12
2019-01-18T20:22:45.325Z,18.20
2019-01-18T20:25:52.327Z,19.12
2019-01-18T20:29:04.248Z,22.87
2019-01-18T20:32:26.902Z,17.70
2019-01-18T20:35:55.635Z,16.73
2019-01-18T20:38:50.204Z,18.85
2019-01-18T20:41:57.621Z,18.17
2019-01-18T20:44:53.212Z,17.45
2019-01-18T20:48:22.295Z,18.10
2019-01-18T20:51:11.423Z,16.95
2019-01-18T20:54:16.753Z,17.35
2019-01-18T20:57:20.588Z,17.17
2019-01-18T21:00:29.615Z,16.23
2019-01-18T21:03:25.249Z,17.52
2019-01-18T21:06:30.654Z,18.37
2019-01-18T21:09:32.053Z,17.23
2019-01-18T21:12:29.649Z,17.52
2019-01-18T21:15:45.672Z,18.45
2019-01-18T21:18:42.608Z,17.27
2019-01-18T21:21:36.294Z,17.80
2019-01-18T21:24:32.008Z,17.40
2019-01-18T21:27:24.952Z,16.90
2019-01-18T21:30:47.087Z,17.40
2019-01-18T21:33:35.259Z,17.57
2019-01-18T21:36:33.243Z,17.35
2019-01-18T21:39:48.197Z,16.48
2019-01-18T21:42:45.538Z,16.27
2019-01-18T21:46:07.017Z,16.60
2019-01-18T21:49:08.050Z,16.32
2019-01-18T21:51:58.136Z,16.73
2019-01-18T21:54:46.522Z,17.02
2019-01-18T21:57:42.594Z,17.35
2019-01-18T22:00:40.608Z,16.00
2019-01-18T22:03:50.956Z,15.95
2019-01-18T22:06:45.907Z,16.00
2019-01-18T22:09:28.277Z,16.42
2019-01-18T22:12:19.479Z,17.10
2019-01-18T22:15:22.085Z,16.48
2019-01-18T22:18:23.343Z,16.20
2019-01-18T22:21:14.680Z,16.75
2019-01-18T22:24:19.522Z,16.10
2019-01-18T22:27:37.904Z,16.20
2019-01-18T22:30:45.357Z,16.15
2019-01-18T22:33:45.001Z,16.02
2019-01-18T22:36:36.623Z,17.62
2019-01-18T22:39:21.374Z,16.50
2019-01-18T22:42:21.070Z,16.35
2019-01-18T22:45:07.468Z,15.30
2019-01-18T22:48:23.593Z,15.25
2019-01-18T22:51:29.477Z,14.68
2019-01-18T22:54:35.843Z,14.30
2019-01-18T22:57:55.461Z,15.80
2019-01-18T23:01:06.189Z,14.83
2019-01-18T23:03:46.239Z,14.20
2019-01-18T23:06:40.181Z,15.50
2019-01-18T23:09:46.977Z,13.45
2019-01-18T23:12:49.134Z,13.70
2019-01-18T23:15:45.280Z,16.02
2019-01-18T23:18:32.759Z,15.20
2019-01-18T23:21:58.434Z,15.78
2019-01-18T23:24:43.102Z,15.90
2019-01-18T23:28:11.028Z,15.70
2019-01-18T23:31:07.945Z,16.60
2019-01-18T23:34:20.068Z,16.65
2019-01-18T23:37:07.373Z,14.80
2019-01-18T23:40:14.627Z,15.25
2019-01-18T23:43:23.211Z,14.40
2019-01-18T23:46:19.040Z,13.35
2019-01-18T23:49:07.543Z,13.38
2019-01-18T23:51:50.393Z,13.28
2019-01-18T23:54:34.816Z,13.70
2019-01-18T23:57:39.308Z,15.30
